Fortune Wing — VRHW2 — position and weather

sailwx.info

Track history (hours):
 
Tides and Currents Weather Stations Pressure Air Temp Water Temp Dewpoint Dewpoint Depression Visibility Wind Speed Wind Dir Waves Ship Positions

Fortune Wing

Last reported at 2014-Oct-18 09:21 UTC. Time now 2014-Oct-25 13:35 UTC.
Position N 55°58' E 016°29'.

Length 190 m; draft 8.1 m.

Type: Cargo ship. MMSI: 477389500.

Date/timePositionNaut miles runAvg speedWind from/ knotsBaromVisibWave heightAir tempDewpointWater temp
2014-Oct-18 09:21N 55°58' E 016°29'3913.5
2014-Oct-18 06:26N 55°39' E 015°28'1213.4
2014-Oct-18 05:33N 55°33' E 015°10'1313.5
2014-Oct-18 04:34N 55°27' E 014°49'1313.0
2014-Oct-18 03:33N 55°19' E 014°31'1313.3
2014-Oct-18 02:33N 55°08' E 014°17'1313.0
2014-Oct-18 01:33N 54°60' E 013°60'4013.2
2014-Oct-17 22:33N 54°47' E 012°55'1713.0
2014-Oct-17 21:16N 54°39' E 012°29'912.4
2014-Oct-17 20:32N 54°33' E 012°17'1110.9
2014-Oct-17 19:30N 54°24' E 012°05'1212.9
2014-Oct-17 18:32N 54°26' E 011°44'1912.9
2014-Oct-17 17:05N 54°34' E 011°14'612.3
2014-Oct-17 16:33N 54°35' E 011°04'1413.8
2014-Oct-17 15:33N 54°34' E 010°40'1313.2
2014-Oct-17 14:33N 54°29' E 010°19'9 9.3
2014-Oct-17 13:33N 54°22' E 010°09'2 1.6
2014-Oct-17 12:33N 54°22' E 010°06'5 5.3
2014-Oct-17 11:33N 54°21' E 009°58'5 5.3
2014-Oct-17 10:33N 54°22' E 009°49'6 5.7
2014-Oct-17 09:33N 54°18' E 009°42'6 5.7
2014-Oct-17 08:33N 54°13' E 009°36'6 6.3
2014-Oct-17 07:33N 54°10' E 009°27'6 6.0
2014-Oct-17 06:33N 54°06' E 009°20'7 6.6
2014-Oct-17 05:33N 53°59' E 009°17'7 6.6
2014-Oct-17 04:33N 53°54' E 009°10'1 1.1
2014-Oct-17 03:33N 53°54' E 009°09'1 0.9
2014-Oct-17 02:33N 53°53' E 009°10'1 0.7
2014-Oct-17 01:33N 53°53' E 009°11'0 0.0
2014-Oct-17 00:33N 53°53' E 009°11'0 0.0
2014-Oct-16 23:33N 53°53' E 009°11'0 0.0
2014-Oct-16 22:33N 53°53' E 009°11'0 0.0
2014-Oct-16 21:33N 53°53' E 009°11'0 0.0
2014-Oct-16 20:33N 53°53' E 009°11'0 0.0
2014-Oct-16 19:33N 53°53' E 009°11'0 0.0
2014-Oct-16 18:33N 53°53' E 009°11'0 0.0
2014-Oct-16 17:33N 53°53' E 009°11'0 0.0
2014-Oct-16 16:33N 53°53' E 009°11'0 0.0
2014-Oct-16 15:33N 53°53' E 009°11'0 0.0
2014-Oct-16 14:33N 53°53' E 009°11'0 0.0
2014-Oct-16 13:33N 53°53' E 009°11'0 0.0
2014-Oct-16 12:33N 53°53' E 009°11'0 0.0
2014-Oct-16 11:33N 53°53' E 009°11'0 0.0
2014-Oct-16 10:33N 53°53' E 009°11'0 0.0
2014-Oct-16 09:33N 53°53' E 009°11'0 0.0
2014-Oct-16 08:33N 53°53' E 009°11'0 0.0
2014-Oct-16 07:33N 53°53' E 009°11'0 0.0
2014-Oct-16 06:33N 53°53' E 009°11'0 0.0
2014-Oct-16 05:33N 53°53' E 009°11'0 0.0
2014-Oct-16 04:33N 53°53' E 009°11'0 0.0
2014-Oct-16 03:33N 53°53' E 009°11'0 0.5
2014-Oct-16 02:33N 53°53' E 009°11'9 9.0
2014-Oct-16 01:34N 53°51' E 008°56'1111.1
2014-Oct-16 00:34N 53°56' E 008°40'1413.8
2014-Oct-15 23:34N 53°60' E 008°17'6 6.3
2014-Oct-15 22:33N 54°02' E 008°07'0 0.1
2014-Oct-15 21:31N 54°02' E 008°07'0 0.1
2014-Oct-15 20:31N 54°02' E 008°07'0 0.0
2014-Oct-15 19:31N 54°02' E 008°07'0 0.0
2014-Oct-15 18:31N 54°02' E 008°07'0 0.1
2014-Oct-15 17:31N 54°02' E 008°07'0 0.1
2014-Oct-15 16:31N 54°02' E 008°07'0 0.0
2014-Oct-15 15:31N 54°02' E 008°07'0 0.0
2014-Oct-15 14:31N 54°02' E 008°07'0 0.0
2014-Oct-15 13:31N 54°02' E 008°07'0 0.0
2014-Oct-15 12:31N 54°02' E 008°07'0 0.0
2014-Oct-15 11:31N 54°02' E 008°07'0 0.0
2014-Oct-15 10:31N 54°02' E 008°07'0 0.1
2014-Oct-15 09:31N 54°02' E 008°07'0 0.1
2014-Oct-15 08:31N 54°02' E 008°07'0 0.0
2014-Oct-15 07:31N 54°02' E 008°07'0 0.0
2014-Oct-15 06:31N 54°02' E 008°07'0 0.0
2014-Oct-15 05:31N 54°02' E 008°07'0 0.0
2014-Oct-15 04:31N 54°02' E 008°07'0 0.0
2014-Oct-15 03:31N 54°02' E 008°07'0 0.0
2014-Oct-15 02:31N 54°02' E 008°07'0 0.0
2014-Oct-15 01:28N 54°02' E 008°07'0 0.0
2014-Oct-15 00:31N 54°02' E 008°07'0 0.0
2014-Oct-14 23:31N 54°02' E 008°07'0 0.1
2014-Oct-14 22:31N 54°02' E 008°07'0 0.1
2014-Oct-14 21:31N 54°02' E 008°07'0 0.1
2014-Oct-14 20:31N 54°02' E 008°07'0 0.0
2014-Oct-14 19:31N 54°02' E 008°07'0 0.0
2014-Oct-14 18:31N 54°02' E 008°07'0 0.0
2014-Oct-14 17:31N 54°02' E 008°07'0 0.0
2014-Oct-14 16:31N 54°02' E 008°07'0 0.1
2014-Oct-14 15:31N 54°02' E 008°07'0 0.1
2014-Oct-14 14:31N 54°02' E 008°07'0 0.0
2014-Oct-14 13:22N 54°02' E 008°07'0 0.0
2014-Oct-14 12:31N 54°02' E 008°07'0 0.0
2014-Oct-14 11:31N 54°02' E 008°07'0 0.0
2014-Oct-14 10:28N 54°02' E 008°07'0 0.1
2014-Oct-14 09:31N 54°02' E 008°07'0 0.1
2014-Oct-14 08:31N 54°02' E 008°07'0 0.0
2014-Oct-14 07:31N 54°02' E 008°07'0 0.0
2014-Oct-14 06:31N 54°02' E 008°07'0 0.0
2014-Oct-14 05:31N 54°02' E 008°07'0 0.0
2014-Oct-14 04:31N 54°02' E 008°07'0 0.0
2014-Oct-14 03:31N 54°02' E 008°07'0 0.2
2014-Oct-14 02:31N 54°02' E 008°07'0 0.0
2014-Oct-14 01:31N 54°02' E 008°07'0 0.0
2014-Oct-14 00:31N 54°02' E 008°07'0 0.0
2014-Oct-13 23:31N 54°02' E 008°07'0 0.1
2014-Oct-13 22:31N 54°02' E 008°07'0 0.1
2014-Oct-13 21:31N 54°02' E 008°07'0 0.0
2014-Oct-13 20:31N 54°02' E 008°07'0 0.0
2014-Oct-13 19:31N 54°02' E 008°07'0 0.0
2014-Oct-13 18:31N 54°02' E 008°07'0 0.0
2014-Oct-13 17:31N 54°02' E 008°07'0 0.0
2014-Oct-13 16:31N 54°02' E 008°07'0 0.0
2014-Oct-13 15:31N 54°02' E 008°07'0 0.0
2014-Oct-13 14:31N 54°02' E 008°07'0 0.1
2014-Oct-13 13:31N 54°02' E 008°07'0 0.3
2014-Oct-13 12:33N 54°02' E 008°07'5 4.9
2014-Oct-13 11:33N 53°59' E 008°01'1313.4
2014-Oct-13 10:33N 53°56' E 007°39'2512.5
2014-Oct-13 08:32N 53°50' E 006°57'1111.2
2014-Oct-13 07:33N 53°48' E 006°39'1110.9
2014-Oct-13 06:33N 53°45' E 006°21'1110.8
2014-Oct-13 05:33N 53°42' E 006°03'1110.8
2014-Oct-13 04:33N 53°38' E 005°46'1010.2
2014-Oct-13 03:33N 53°36' E 005°30'1110.6
2014-Oct-13 02:33N 53°32' E 005°13'1110.9
2014-Oct-13 01:33N 53°28' E 004°56'1111.0
2014-Oct-13 00:33N 53°22' E 004°40'1211.8
2014-Oct-12 23:33N 53°12' E 004°31'1211.9
2014-Oct-12 22:33N 53°01' E 004°22'1212.2
2014-Oct-12 21:33N 52°50' E 004°14'1312.6
2014-Oct-12 20:33N 52°40' E 004°02'1312.8
2014-Oct-12 19:33N 52°31' E 003°45'1313.5
2014-Oct-12 18:33N 52°22' E 003°30'1414.0
2014-Oct-12 17:32N 52°11' E 003°14'3014.4
2014-Oct-12 15:27N 51°49' E 002°41'1314.5
2014-Oct-12 14:33N 51°39' E 002°28'1413.9
2014-Oct-12 13:33N 51°29' E 002°13'1313.4
2014-Oct-12 12:34N 51°16' E 002°06'1211.8
2014-Oct-12 11:33N 51°09' E 001°51'1110.6
2014-Oct-12 10:33N 51°02' E 001°38'1010.2
2014-Oct-12 09:33N 50°54' E 001°28'1010.4
2014-Oct-12 08:33N 50°44' E 001°24'2311.3
2014-Oct-12 06:33N 50°29' E 000°57'1211.8
2014-Oct-12 05:33N 50°26' E 000°39'1211.8
2014-Oct-12 04:33N 50°23' E 000°21'1211.8
2014-Oct-12 03:33N 50°20' E 000°03'  
Track history (hours):
 
Tides and Currents Weather Stations Pressure Air Temp Water Temp Dewpoint Dewpoint Depression Visibility Wind Speed Wind Dir Waves Ship Positions

Fortune Wing

Last reported at 2014-Oct-18 09:21 UTC. Time now 2014-Oct-25 13:35 UTC.
Position N 55°58' E 016°29'.

Length 190 m; draft 8.1 m.

Type: Cargo ship. MMSI: 477389500.

Date/timePositionNaut miles runAvg speedWind from/ knotsBaromVisibWave heightAir tempDewpointWater temp
2014-Oct-18 09:21N 55°58' E 016°29'3913.5
2014-Oct-18 06:26N 55°39' E 015°28'1213.4
2014-Oct-18 05:33N 55°33' E 015°10'1313.5
2014-Oct-18 04:34N 55°27' E 014°49'1313.0
2014-Oct-18 03:33N 55°19' E 014°31'1313.3
2014-Oct-18 02:33N 55°08' E 014°17'1313.0
2014-Oct-18 01:33N 54°60' E 013°60'4013.2
2014-Oct-17 22:33N 54°47' E 012°55'1713.0
2014-Oct-17 21:16N 54°39' E 012°29'912.4
2014-Oct-17 20:32N 54°33' E 012°17'1110.9
2014-Oct-17 19:30N 54°24' E 012°05'1212.9
2014-Oct-17 18:32N 54°26' E 011°44'1912.9
2014-Oct-17 17:05N 54°34' E 011°14'612.3
2014-Oct-17 16:33N 54°35' E 011°04'1413.8
2014-Oct-17 15:33N 54°34' E 010°40'1313.2
2014-Oct-17 14:33N 54°29' E 010°19'9 9.3
2014-Oct-17 13:33N 54°22' E 010°09'2 1.6
2014-Oct-17 12:33N 54°22' E 010°06'5 5.3
2014-Oct-17 11:33N 54°21' E 009°58'5 5.3
2014-Oct-17 10:33N 54°22' E 009°49'6 5.7
2014-Oct-17 09:33N 54°18' E 009°42'6 5.7
2014-Oct-17 08:33N 54°13' E 009°36'6 6.3
2014-Oct-17 07:33N 54°10' E 009°27'6 6.0
2014-Oct-17 06:33N 54°06' E 009°20'7 6.6
2014-Oct-17 05:33N 53°59' E 009°17'7 6.6
2014-Oct-17 04:33N 53°54' E 009°10'1 1.1
2014-Oct-17 03:33N 53°54' E 009°09'1 0.9
2014-Oct-17 02:33N 53°53' E 009°10'1 0.7
2014-Oct-17 01:33N 53°53' E 009°11'0 0.0
2014-Oct-17 00:33N 53°53' E 009°11'0 0.0
2014-Oct-16 23:33N 53°53' E 009°11'0 0.0
2014-Oct-16 22:33N 53°53' E 009°11'0 0.0
2014-Oct-16 21:33N 53°53' E 009°11'0 0.0
2014-Oct-16 20:33N 53°53' E 009°11'0 0.0
2014-Oct-16 19:33N 53°53' E 009°11'0 0.0
2014-Oct-16 18:33N 53°53' E 009°11'0 0.0
2014-Oct-16 17:33N 53°53' E 009°11'0 0.0
2014-Oct-16 16:33N 53°53' E 009°11'0 0.0
2014-Oct-16 15:33N 53°53' E 009°11'0 0.0
2014-Oct-16 14:33N 53°53' E 009°11'0 0.0
2014-Oct-16 13:33N 53°53' E 009°11'0 0.0
2014-Oct-16 12:33N 53°53' E 009°11'0 0.0
2014-Oct-16 11:33N 53°53' E 009°11'0 0.0
2014-Oct-16 10:33N 53°53' E 009°11'0 0.0
2014-Oct-16 09:33N 53°53' E 009°11'0 0.0
2014-Oct-16 08:33N 53°53' E 009°11'0 0.0
2014-Oct-16 07:33N 53°53' E 009°11'0 0.0
2014-Oct-16 06:33N 53°53' E 009°11'0 0.0
2014-Oct-16 05:33N 53°53' E 009°11'0 0.0
2014-Oct-16 04:33N 53°53' E 009°11'0 0.0
2014-Oct-16 03:33N 53°53' E 009°11'0 0.5
2014-Oct-16 02:33N 53°53' E 009°11'9 9.0
2014-Oct-16 01:34N 53°51' E 008°56'1111.1
2014-Oct-16 00:34N 53°56' E 008°40'1413.8
2014-Oct-15 23:34N 53°60' E 008°17'6 6.3
2014-Oct-15 22:33N 54°02' E 008°07'0 0.1
2014-Oct-15 21:31N 54°02' E 008°07'0 0.1
2014-Oct-15 20:31N 54°02' E 008°07'0 0.0
2014-Oct-15 19:31N 54°02' E 008°07'0 0.0
2014-Oct-15 18:31N 54°02' E 008°07'0 0.1
2014-Oct-15 17:31N 54°02' E 008°07'0 0.1
2014-Oct-15 16:31N 54°02' E 008°07'0 0.0
2014-Oct-15 15:31N 54°02' E 008°07'0 0.0
2014-Oct-15 14:31N 54°02' E 008°07'0 0.0
2014-Oct-15 13:31N 54°02' E 008°07'0 0.0
2014-Oct-15 12:31N 54°02' E 008°07'0 0.0
2014-Oct-15 11:31N 54°02' E 008°07'0 0.0
2014-Oct-15 10:31N 54°02' E 008°07'0 0.1
2014-Oct-15 09:31N 54°02' E 008°07'0 0.1
2014-Oct-15 08:31N 54°02' E 008°07'0 0.0
2014-Oct-15 07:31N 54°02' E 008°07'0 0.0
2014-Oct-15 06:31N 54°02' E 008°07'0 0.0
2014-Oct-15 05:31N 54°02' E 008°07'0 0.0
2014-Oct-15 04:31N 54°02' E 008°07'0 0.0
2014-Oct-15 03:31N 54°02' E 008°07'0 0.0
2014-Oct-15 02:31N 54°02' E 008°07'0 0.0
2014-Oct-15 01:28N 54°02' E 008°07'0 0.0
2014-Oct-15 00:31N 54°02' E 008°07'0 0.0
2014-Oct-14 23:31N 54°02' E 008°07'0 0.1
2014-Oct-14 22:31N 54°02' E 008°07'0 0.1
2014-Oct-14 21:31N 54°02' E 008°07'0 0.1
2014-Oct-14 20:31N 54°02' E 008°07'0 0.0
2014-Oct-14 19:31N 54°02' E 008°07'0 0.0
2014-Oct-14 18:31N 54°02' E 008°07'0 0.0
2014-Oct-14 17:31N 54°02' E 008°07'0 0.0
2014-Oct-14 16:31N 54°02' E 008°07'0 0.1
2014-Oct-14 15:31N 54°02' E 008°07'0 0.1
2014-Oct-14 14:31N 54°02' E 008°07'0 0.0
2014-Oct-14 13:22N 54°02' E 008°07'0 0.0
2014-Oct-14 12:31N 54°02' E 008°07'0 0.0
2014-Oct-14 11:31N 54°02' E 008°07'0 0.0
2014-Oct-14 10:28N 54°02' E 008°07'0 0.1
2014-Oct-14 09:31N 54°02' E 008°07'0 0.1
2014-Oct-14 08:31N 54°02' E 008°07'0 0.0
2014-Oct-14 07:31N 54°02' E 008°07'0 0.0
2014-Oct-14 06:31N 54°02' E 008°07'0 0.0
2014-Oct-14 05:31N 54°02' E 008°07'0 0.0
2014-Oct-14 04:31N 54°02' E 008°07'0 0.0
2014-Oct-14 03:31N 54°02' E 008°07'0 0.2
2014-Oct-14 02:31N 54°02' E 008°07'0 0.0
2014-Oct-14 01:31N 54°02' E 008°07'0 0.0
2014-Oct-14 00:31N 54°02' E 008°07'0 0.0
2014-Oct-13 23:31N 54°02' E 008°07'0 0.1
2014-Oct-13 22:31N 54°02' E 008°07'0 0.1
2014-Oct-13 21:31N 54°02' E 008°07'0 0.0
2014-Oct-13 20:31N 54°02' E 008°07'0 0.0
2014-Oct-13 19:31N 54°02' E 008°07'0 0.0
2014-Oct-13 18:31N 54°02' E 008°07'0 0.0
2014-Oct-13 17:31N 54°02' E 008°07'0 0.0
2014-Oct-13 16:31N 54°02' E 008°07'0 0.0
2014-Oct-13 15:31N 54°02' E 008°07'0 0.0
2014-Oct-13 14:31N 54°02' E 008°07'0 0.1
2014-Oct-13 13:31N 54°02' E 008°07'0 0.3
2014-Oct-13 12:33N 54°02' E 008°07'5 4.9
2014-Oct-13 11:33N 53°59' E 008°01'1313.4
2014-Oct-13 10:33N 53°56' E 007°39'2512.5
2014-Oct-13 08:32N 53°50' E 006°57'1111.2
2014-Oct-13 07:33N 53°48' E 006°39'1110.9
2014-Oct-13 06:33N 53°45' E 006°21'1110.8
2014-Oct-13 05:33N 53°42' E 006°03'1110.8
2014-Oct-13 04:33N 53°38' E 005°46'1010.2
2014-Oct-13 03:33N 53°36' E 005°30'1110.6
2014-Oct-13 02:33N 53°32' E 005°13'1110.9
2014-Oct-13 01:33N 53°28' E 004°56'1111.0
2014-Oct-13 00:33N 53°22' E 004°40'1211.8
2014-Oct-12 23:33N 53°12' E 004°31'1211.9
2014-Oct-12 22:33N 53°01' E 004°22'1212.2
2014-Oct-12 21:33N 52°50' E 004°14'1312.6
2014-Oct-12 20:33N 52°40' E 004°02'1312.8
2014-Oct-12 19:33N 52°31' E 003°45'1313.5
2014-Oct-12 18:33N 52°22' E 003°30'1414.0
2014-Oct-12 17:32N 52°11' E 003°14'3014.4
2014-Oct-12 15:27N 51°49' E 002°41'1314.5
2014-Oct-12 14:33N 51°39' E 002°28'1413.9
2014-Oct-12 13:33N 51°29' E 002°13'1313.4
2014-Oct-12 12:34N 51°16' E 002°06'1211.8
2014-Oct-12 11:33N 51°09' E 001°51'1110.6
2014-Oct-12 10:33N 51°02' E 001°38'1010.2
2014-Oct-12 09:33N 50°54' E 001°28'1010.4
2014-Oct-12 08:33N 50°44' E 001°24'2311.3
2014-Oct-12 06:33N 50°29' E 000°57'1211.8
2014-Oct-12 05:33N 50°26' E 000°39'1211.8
2014-Oct-12 04:33N 50°23' E 000°21'1211.8
2014-Oct-12 03:33N 50°20' E 000°03'  

Dump ship's entire track history